createdAt,value
2024-02-16T00:01:56.573Z,84.84
2024-02-16T00:04:24.365Z,84.73
2024-02-16T00:06:52.300Z,84.98
2024-02-16T00:09:20.272Z,84.55
2024-02-16T00:11:49.744Z,84.84
2024-02-16T00:14:17.581Z,84.02
2024-02-16T00:16:45.430Z,83.50
2024-02-16T00:19:13.536Z,84.08
2024-02-16T00:21:43.177Z,84.22
2024-02-16T00:24:11.589Z,84.37
2024-02-16T00:26:40.572Z,83.89
2024-02-16T00:29:10.059Z,84.58
2024-02-16T00:31:37.938Z,84.57
2024-02-16T00:34:05.945Z,83.77
2024-02-16T00:36:35.254Z,84.04
2024-02-16T00:39:04.709Z,83.84
2024-02-16T00:41:32.654Z,83.52
2024-02-16T00:44:00.472Z,83.28
2024-02-16T00:46:29.727Z,83.46
2024-02-16T00:48:57.758Z,83.80
2024-02-16T00:51:27.274Z,82.74
2024-02-16T00:53:55.477Z,82.14
2024-02-16T00:56:23.751Z,82.03
2024-02-16T00:58:51.671Z,82.57
2024-02-16T01:01:19.640Z,82.88
2024-02-16T01:03:48.821Z,82.62
2024-02-16T01:06:17.020Z,82.37
2024-02-16T01:08:44.924Z,81.65
2024-02-16T01:11:12.832Z,79.57
2024-02-16T01:13:41.047Z,81.71
2024-02-16T01:16:09.415Z,80.30
2024-02-16T01:18:38.759Z,78.74
2024-02-16T01:21:08.311Z,77.91
2024-02-16T01:23:36.223Z,79.33
2024-02-16T01:26:04.135Z,78.60
2024-02-16T01:28:31.966Z,79.19
2024-02-16T01:30:59.769Z,80.30
2024-02-16T01:33:27.851Z,80.99
2024-02-16T01:35:55.811Z,80.63
2024-02-16T01:38:25.194Z,82.89
2024-02-16T01:40:53.044Z,85.48
2024-02-16T01:43:21.909Z,85.56
2024-02-16T01:45:49.818Z,86.49
2024-02-16T01:48:18.798Z,87.25
2024-02-16T01:50:47.233Z,87.02
2024-02-16T01:53:19.599Z,88.69
2024-02-16T01:55:49.074Z,87.62
2024-02-16T01:58:17.424Z,86.52
2024-02-16T02:00:45.395Z,85.30
2024-02-16T02:03:14.255Z,85.13
2024-02-16T02:05:46.745Z,86.29
2024-02-16T02:08:15.688Z,87.13
2024-02-16T02:10:44.452Z,87.52
2024-02-16T02:13:13.736Z,88.04
2024-02-16T02:15:41.678Z,87.99
2024-02-16T02:18:09.834Z,87.44
2024-02-16T02:20:37.800Z,87.69
2024-02-16T02:23:07.110Z,88.66
2024-02-16T02:25:36.104Z,88.65
2024-02-16T02:28:04.434Z,88.73
2024-02-16T02:30:32.357Z,88.08
2024-02-16T02:33:00.322Z,88.87
2024-02-16T02:35:28.199Z,88.85
2024-02-16T02:37:56.055Z,89.10
2024-02-16T02:40:25.696Z,88.68
2024-02-16T02:42:53.605Z,88.17
2024-02-16T02:45:21.518Z,87.96
2024-02-16T02:47:49.447Z,86.66
2024-02-16T02:50:17.615Z,86.27
2024-02-16T02:52:46.831Z,85.46
2024-02-16T02:55:14.815Z,86.77
2024-02-16T02:57:44.189Z,86.93
2024-02-16T03:00:13.325Z,86.79
2024-02-16T03:02:42.381Z,88.28
2024-02-16T03:05:10.543Z,87.39
2024-02-16T03:07:38.841Z,86.88
2024-02-16T03:10:10.496Z,86.99
2024-02-16T03:12:38.564Z,87.52
2024-02-16T03:15:08.974Z,87.11
2024-02-16T03:17:36.818Z,86.75
2024-02-16T03:20:05.085Z,88.20
2024-02-16T03:22:32.908Z,87.59
2024-02-16T03:25:00.784Z,87.51
2024-02-16T03:27:28.873Z,88.54
2024-02-16T03:29:56.860Z,88.18
2024-02-16T03:32:26.133Z,87.74
2024-02-16T03:34:54.089Z,87.91
2024-02-16T03:37:21.985Z,88.32
2024-02-16T03:39:49.802Z,88.44
2024-02-16T03:42:18.433Z,88.49
2024-02-16T03:44:46.307Z,87.68
2024-02-16T03:47:14.146Z,87.44
2024-02-16T03:49:45.111Z,87.49
2024-02-16T03:52:14.459Z,88.11
2024-02-16T03:54:43.340Z,87.93
2024-02-16T03:57:13.295Z,88.07
2024-02-16T03:59:41.246Z,89.14
2024-02-16T04:02:09.114Z,88.18
2024-02-16T04:04:37.024Z,88.54
2024-02-16T04:07:07.883Z,88.69
2024-02-16T04:09:35.998Z,87.97
2024-02-16T04:12:04.986Z,87.63
2024-02-16T04:14:33.681Z,88.58
2024-02-16T04:17:01.673Z,89.08
2024-02-16T04:19:29.745Z,89.16
2024-02-16T04:21:59.776Z,88.62
2024-02-16T04:24:30.015Z,88.92
2024-02-16T04:26:58.077Z,89.41
2024-02-16T04:29:26.009Z,88.27
2024-02-16T04:31:53.818Z,88.43
2024-02-16T04:34:21.773Z,88.44
2024-02-16T04:36:49.827Z,89.28
2024-02-16T04:39:18.543Z,87.61
2024-02-16T04:41:47.883Z,88.30
2024-02-16T04:44:15.711Z,88.30
2024-02-16T04:46:43.591Z,88.42
2024-02-16T04:49:11.503Z,88.79
2024-02-16T04:51:40.790Z,88.75
2024-02-16T04:54:09.144Z,88.54
2024-02-16T04:56:37.134Z,88.42
2024-02-16T04:59:06.378Z,88.58
2024-02-16T05:01:34.274Z,88.79
2024-02-16T05:04:03.249Z,88.20
2024-02-16T05:06:31.580Z,87.46
2024-02-16T05:08:59.589Z,87.23
2024-02-16T05:11:28.873Z,87.79
2024-02-16T05:13:56.822Z,87.92
2024-02-16T05:16:47.450Z,87.64
2024-02-16T05:19:15.608Z,87.35
2024-02-16T05:21:43.827Z,87.69
2024-02-16T05:24:11.719Z,87.12
2024-02-16T05:26:39.698Z,86.35
2024-02-16T05:29:07.543Z,86.72
2024-02-16T05:31:35.352Z,86.70
2024-02-16T05:34:04.729Z,86.67
2024-02-16T05:36:36.916Z,86.50
2024-02-16T05:39:21.079Z,86.32
2024-02-16T05:41:49.622Z,86.05
2024-02-16T05:44:17.573Z,86.35
2024-02-16T05:46:46.816Z,86.53
2024-02-16T05:49:17.195Z,86.35
2024-02-16T05:52:07.444Z,86.52
2024-02-16T05:54:38.708Z,84.51
2024-02-16T05:57:10.182Z,83.72
2024-02-16T05:59:39.036Z,84.67
2024-02-16T06:02:07.909Z,83.79
2024-02-16T06:04:37.240Z,82.46
2024-02-16T06:07:05.531Z,81.68
2024-02-16T06:09:35.031Z,80.02
2024-02-16T06:12:05.757Z,80.48
2024-02-16T06:14:34.300Z,79.21
2024-02-16T06:17:02.233Z,78.79
2024-02-16T06:19:30.335Z,78.67
2024-02-16T06:22:00.095Z,80.44
2024-02-16T06:24:28.684Z,81.26
2024-02-16T06:26:57.746Z,79.13
2024-02-16T06:29:26.022Z,80.07
2024-02-16T06:31:54.080Z,81.01
2024-02-16T06:34:22.182Z,81.41
2024-02-16T06:36:50.646Z,82.77
2024-02-16T06:39:20.904Z,82.44
2024-02-16T06:41:50.483Z,82.13
2024-02-16T06:44:21.825Z,82.58
2024-02-16T06:46:51.556Z,83.41
2024-02-16T06:49:19.444Z,83.16
2024-02-16T06:51:47.266Z,83.08
2024-02-16T06:54:15.665Z,83.89
2024-02-16T06:56:45.230Z,83.77
2024-02-16T06:59:13.242Z,83.69
2024-02-16T07:01:41.970Z,83.29
2024-02-16T07:04:10.428Z,82.50
2024-02-16T07:06:39.540Z,83.35
2024-02-16T07:09:07.529Z,83.40
2024-02-16T07:11:36.047Z,84.06
2024-02-16T07:14:07.770Z,84.43
2024-02-16T07:16:35.810Z,84.77
2024-02-16T07:19:03.907Z,83.87
2024-02-16T07:21:31.941Z,83.91
2024-02-16T07:23:59.985Z,85.10
2024-02-16T07:26:27.870Z,84.48
2024-02-16T07:28:55.723Z,84.53
2024-02-16T07:31:24.985Z,85.42
2024-02-16T07:33:54.047Z,85.42
2024-02-16T07:36:22.055Z,85.49
2024-02-16T07:38:50.021Z,85.57
2024-02-16T07:41:18.084Z,85.09
2024-02-16T07:43:45.994Z,84.62
2024-02-16T07:46:14.017Z,85.21
2024-02-16T07:48:43.983Z,84.67
2024-02-16T07:51:11.971Z,83.79
2024-02-16T07:53:42.260Z,83.95
2024-02-16T07:56:10.869Z,83.15
2024-02-16T07:58:38.781Z,84.10
2024-02-16T08:01:07.393Z,83.86
2024-02-16T08:03:35.577Z,81.82
2024-02-16T08:06:05.091Z,79.95
2024-02-16T08:08:33.238Z,80.37
2024-02-16T08:11:01.172Z,77.69
2024-02-16T08:13:29.193Z,77.41
2024-02-16T08:15:57.790Z,76.73
2024-02-16T08:18:25.973Z,76.54
2024-02-16T08:20:54.102Z,76.03
2024-02-16T08:23:23.374Z,76.03
2024-02-16T08:25:51.249Z,74.74
2024-02-16T08:28:19.564Z,74.65
2024-02-16T08:30:47.572Z,73.46
2024-02-16T08:33:15.586Z,73.83
2024-02-16T08:35:43.679Z,73.23
2024-02-16T08:38:12.168Z,73.13
2024-02-16T08:40:42.401Z,73.48
2024-02-16T08:43:10.347Z,73.21
2024-02-16T08:45:38.367Z,72.78
2024-02-16T08:48:06.790Z,72.39
2024-02-16T08:50:34.746Z,72.20
2024-02-16T08:53:02.795Z,72.11
2024-02-16T08:55:30.575Z,72.08
2024-02-16T08:58:00.204Z,70.78
2024-02-16T09:00:29.350Z,70.63
2024-02-16T09:02:59.147Z,70.36
2024-02-16T09:05:27.264Z,69.94
2024-02-16T09:07:55.246Z,69.48
2024-02-16T09:10:23.211Z,69.32
2024-02-16T09:12:52.973Z,69.36
2024-02-16T09:15:22.313Z,69.97
2024-02-16T09:17:50.843Z,69.24
2024-02-16T09:20:23.369Z,69.02
2024-02-16T09:22:51.383Z,68.48
2024-02-16T09:25:19.293Z,68.94
2024-02-16T09:27:47.197Z,69.21
2024-02-16T09:30:15.835Z,69.01
2024-02-16T09:32:45.025Z,69.27
2024-02-16T09:35:13.227Z,68.84
2024-02-16T09:37:41.822Z,68.53
2024-02-16T09:40:11.548Z,68.90
2024-02-16T09:42:40.363Z,69.05
2024-02-16T09:45:09.767Z,68.75
2024-02-16T09:47:41.855Z,69.07
2024-02-16T09:50:13.650Z,69.41
2024-02-16T09:52:48.405Z,69.97
2024-02-16T09:55:17.806Z,70.23
2024-02-16T09:57:45.856Z,70.07
2024-02-16T10:00:15.485Z,69.70
2024-02-16T10:02:44.106Z,70.06
2024-02-16T10:05:16.182Z,69.71
2024-02-16T10:07:45.602Z,69.11
2024-02-16T10:10:24.191Z,68.94
2024-02-16T10:12:52.577Z,68.42
2024-02-16T10:15:24.785Z,68.51
2024-02-16T10:18:02.695Z,67.37
2024-02-16T10:20:32.510Z,67.54
2024-02-16T10:23:07.958Z,67.76
2024-02-16T10:25:36.018Z,67.73
2024-02-16T10:28:07.928Z,67.58
2024-02-16T10:30:39.573Z,67.54
2024-02-16T10:33:08.278Z,68.77
2024-02-16T10:35:38.691Z,68.03
2024-02-16T10:38:11.040Z,66.51
2024-02-16T10:40:40.451Z,66.90
2024-02-16T10:43:10.395Z,67.56
2024-02-16T10:45:40.542Z,66.50
2024-02-16T10:48:09.875Z,65.98
2024-02-16T10:50:40.102Z,66.30
2024-02-16T10:53:18.542Z,65.67
2024-02-16T10:55:46.693Z,66.36
2024-02-16T10:58:14.604Z,66.64
2024-02-16T11:00:53.241Z,66.42
2024-02-16T11:03:25.881Z,66.66
2024-02-16T11:05:59.198Z,66.02
2024-02-16T11:08:29.970Z,66.79
2024-02-16T11:11:03.975Z,66.29
2024-02-16T11:13:35.795Z,66.82
2024-02-16T11:16:05.626Z,66.38
2024-02-16T11:18:39.036Z,66.06
2024-02-16T11:21:09.295Z,66.08
2024-02-16T11:23:38.484Z,66.64
2024-02-16T11:26:10.216Z,66.02
2024-02-16T11:28:38.148Z,65.75
2024-02-16T11:31:07.159Z,66.50
2024-02-16T11:33:35.693Z,66.14
2024-02-16T11:36:05.134Z,65.91
2024-02-16T11:38:34.896Z,65.61
2024-02-16T11:41:05.190Z,65.63
2024-02-16T11:43:33.930Z,65.55
2024-02-16T11:46:02.191Z,65.23
2024-02-16T11:48:32.412Z,65.23
2024-02-16T11:51:05.609Z,65.89
2024-02-16T11:53:34.955Z,66.45
2024-02-16T11:56:02.789Z,65.69
2024-02-16T11:58:32.439Z,64.72
2024-02-16T12:01:03.893Z,64.48
2024-02-16T12:03:32.603Z,65.23
2024-02-16T12:06:02.534Z,64.64
2024-02-16T12:08:36.567Z,64.74
2024-02-16T12:11:05.165Z,65.40
2024-02-16T12:13:33.073Z,64.56
2024-02-16T12:16:00.893Z,65.28
2024-02-16T12:18:30.496Z,64.43
2024-02-16T12:20:59.945Z,63.71
2024-02-16T12:23:27.839Z,63.78
2024-02-16T12:25:57.083Z,63.30
2024-02-16T12:28:26.936Z,63.74
2024-02-16T12:30:54.865Z,63.91
2024-02-16T12:33:23.648Z,64.32
2024-02-16T12:35:52.046Z,65.19
2024-02-16T12:38:20.767Z,65.29
2024-02-16T12:40:48.820Z,64.22
2024-02-16T12:43:19.787Z,64.70
2024-02-16T12:45:47.822Z,65.04
2024-02-16T12:48:16.401Z,64.54
2024-02-16T12:50:44.438Z,63.89
2024-02-16T12:53:12.873Z,63.73
2024-02-16T12:55:40.960Z,63.39
2024-02-16T12:58:08.964Z,63.70
2024-02-16T13:00:38.349Z,63.92
2024-02-16T13:03:06.600Z,64.73
2024-02-16T13:05:34.500Z,63.62
2024-02-16T13:08:02.858Z,64.26
2024-02-16T13:10:31.582Z,64.50
2024-02-16T13:12:59.721Z,64.38
2024-02-16T13:15:29.114Z,64.38
2024-02-16T13:17:59.184Z,64.43
2024-02-16T13:20:27.286Z,65.05
2024-02-16T13:22:55.221Z,64.86
2024-02-16T13:25:23.428Z,64.55
2024-02-16T13:27:51.378Z,64.71
2024-02-16T13:30:19.382Z,64.80
2024-02-16T13:32:47.936Z,64.72
2024-02-16T13:35:20.857Z,64.54
2024-02-16T13:37:49.807Z,65.62
2024-02-16T13:40:18.767Z,64.61
2024-02-16T13:42:47.133Z,65.07
2024-02-16T13:45:15.174Z,65.67
2024-02-16T13:47:43.115Z,65.09
2024-02-16T13:50:12.202Z,65.05
2024-02-16T13:52:41.680Z,64.50
2024-02-16T13:55:10.404Z,64.51
2024-02-16T13:57:40.430Z,64.60
2024-02-16T14:00:09.966Z,64.66
2024-02-16T14:02:41.147Z,64.82
2024-02-16T14:05:08.944Z,65.11
2024-02-16T14:07:43.297Z,65.15
2024-02-16T14:10:19.878Z,65.38
2024-02-16T14:12:48.291Z,65.53
2024-02-16T14:15:17.501Z,66.28
2024-02-16T14:17:45.639Z,66.11
2024-02-16T14:20:13.945Z,66.50
2024-02-16T14:22:41.939Z,66.82
2024-02-16T14:25:11.771Z,67.38
2024-02-16T14:27:42.831Z,67.29
2024-02-16T14:30:11.917Z,67.38
2024-02-16T14:32:39.950Z,67.56
2024-02-16T14:35:08.531Z,67.75
2024-02-16T14:37:36.877Z,67.50
2024-02-16T14:40:06.329Z,67.42
2024-02-16T14:42:34.346Z,67.22
2024-02-16T14:45:04.633Z,67.48
2024-02-16T14:47:32.778Z,67.64
2024-02-16T14:50:00.773Z,67.83
2024-02-16T14:52:30.227Z,68.24
2024-02-16T14:54:58.704Z,67.65
2024-02-16T14:57:26.651Z,67.46
2024-02-16T14:59:56.712Z,67.37
2024-02-16T15:02:26.594Z,68.15
2024-02-16T15:04:55.112Z,68.28
2024-02-16T15:07:23.001Z,68.78
2024-02-16T15:09:50.947Z,68.79
2024-02-16T15:12:20.264Z,68.82
2024-02-16T15:14:49.210Z,69.06
2024-02-16T15:17:17.010Z,69.22
2024-02-16T15:19:46.393Z,69.20
2024-02-16T15:22:14.585Z,69.31
2024-02-16T15:24:42.694Z,69.54
2024-02-16T15:27:11.624Z,69.54
2024-02-16T15:29:39.531Z,69.65
2024-02-16T15:32:07.771Z,69.69
2024-02-16T15:34:35.643Z,70.12
2024-02-16T15:37:05.281Z,69.98
2024-02-16T15:39:33.130Z,70.41
2024-02-16T15:42:01.111Z,70.61
2024-02-16T15:44:29.156Z,70.47
2024-02-16T15:46:57.162Z,70.88
2024-02-16T15:49:25.245Z,71.03
2024-02-16T15:51:53.199Z,71.00
2024-02-16T15:54:26.869Z,71.37
2024-02-16T15:56:56.926Z,71.37
2024-02-16T15:59:26.635Z,71.50
2024-02-16T16:01:54.494Z,71.49
2024-02-16T16:04:22.498Z,71.66
2024-02-16T16:06:50.643Z,72.09
2024-02-16T16:09:19.695Z,72.40
2024-02-16T16:11:49.080Z,72.94
2024-02-16T16:14:17.446Z,73.03
2024-02-16T16:16:45.267Z,73.00
2024-02-16T16:19:13.347Z,72.95
2024-02-16T16:21:41.539Z,73.63
2024-02-16T16:24:14.368Z,73.09
2024-02-16T16:26:44.206Z,72.75
2024-02-16T16:29:16.250Z,72.64
2024-02-16T16:31:44.125Z,72.79
2024-02-16T16:34:12.240Z,73.03
2024-02-16T16:36:40.974Z,73.01
2024-02-16T16:39:09.082Z,72.96
2024-02-16T16:41:36.933Z,72.82
2024-02-16T16:44:04.910Z,72.78
2024-02-16T16:46:34.313Z,72.96
2024-02-16T16:49:02.219Z,73.14
2024-02-16T16:51:30.730Z,73.26
2024-02-16T16:53:58.773Z,73.20
2024-02-16T16:56:26.876Z,73.37
2024-02-16T16:58:55.033Z,73.14
2024-02-16T17:01:23.523Z,73.38
2024-02-16T17:03:54.861Z,73.60
2024-02-16T17:06:24.709Z,73.65
2024-02-16T17:08:53.134Z,74.18
2024-02-16T17:11:24.194Z,74.62
2024-02-16T17:13:52.768Z,74.73
2024-02-16T17:16:21.654Z,74.97
2024-02-16T17:18:50.138Z,75.85
2024-02-16T17:21:20.220Z,76.09
2024-02-16T17:23:50.865Z,76.53
2024-02-16T17:26:19.599Z,78.02
2024-02-16T17:28:47.920Z,77.99
2024-02-16T17:31:16.149Z,78.58
2024-02-16T17:33:45.374Z,78.40
2024-02-16T17:36:14.813Z,78.78
2024-02-16T17:38:44.517Z,78.13
2024-02-16T17:41:12.968Z,78.48
2024-02-16T17:43:45.795Z,78.19
2024-02-16T17:46:14.099Z,78.60
2024-02-16T17:48:42.465Z,78.84
2024-02-16T17:51:11.510Z,78.62
2024-02-16T17:53:40.587Z,78.38
2024-02-16T17:56:11.598Z,78.30
2024-02-16T17:58:39.927Z,78.45
2024-02-16T18:01:08.300Z,78.30
2024-02-16T18:03:36.801Z,78.26
2024-02-16T18:06:05.445Z,78.15
2024-02-16T18:08:33.907Z,78.50
2024-02-16T18:11:01.901Z,78.29
2024-02-16T18:13:31.063Z,78.33
2024-02-16T18:16:00.785Z,78.95
2024-02-16T18:18:29.372Z,78.55
2024-02-16T18:20:57.422Z,78.87
2024-02-16T18:23:25.593Z,78.34
2024-02-16T18:25:53.737Z,80.04
2024-02-16T18:28:26.539Z,79.42
2024-02-16T18:31:02.990Z,79.31
2024-02-16T18:33:31.337Z,79.28
2024-02-16T18:35:59.665Z,79.57
2024-02-16T18:38:27.591Z,80.07
2024-02-16T18:40:55.452Z,79.92
2024-02-16T18:43:23.581Z,79.82
2024-02-16T18:45:51.439Z,79.68
2024-02-16T18:48:25.430Z,80.61
2024-02-16T18:50:53.482Z,80.90
2024-02-16T18:53:21.820Z,80.65
2024-02-16T18:55:50.720Z,80.65
2024-02-16T18:58:18.669Z,81.08
2024-02-16T19:00:46.726Z,81.39
2024-02-16T19:03:15.544Z,81.66
2024-02-16T19:05:45.034Z,82.35
2024-02-16T19:08:13.524Z,81.80
2024-02-16T19:10:42.990Z,81.69
2024-02-16T19:13:11.130Z,81.60
2024-02-16T19:15:39.065Z,81.92
2024-02-16T19:18:08.873Z,81.69
2024-02-16T19:20:36.959Z,82.21
2024-02-16T19:23:08.336Z,82.81
2024-02-16T19:25:36.195Z,82.43
2024-02-16T19:28:04.070Z,82.48
2024-02-16T19:30:31.928Z,82.19
2024-02-16T19:32:59.876Z,82.24
2024-02-16T19:35:27.831Z,82.42
2024-02-16T19:37:55.701Z,83.08
2024-02-16T19:40:25.528Z,82.35
2024-02-16T19:42:53.619Z,82.89
2024-02-16T19:45:28.452Z,82.88
2024-02-16T19:47:57.235Z,83.27
2024-02-16T19:50:26.013Z,83.71
2024-02-16T19:52:54.123Z,83.80
2024-02-16T19:55:22.105Z,83.81
2024-02-16T19:57:52.070Z,84.34
2024-02-16T20:00:21.579Z,83.88
2024-02-16T20:02:49.608Z,85.62
2024-02-16T20:05:19.312Z,85.39
2024-02-16T20:07:47.904Z,84.68
2024-02-16T20:10:16.894Z,85.29
2024-02-16T20:12:45.409Z,84.85
2024-02-16T20:15:16.137Z,85.18
2024-02-16T20:17:45.543Z,85.61
2024-02-16T20:20:14.185Z,85.70
2024-02-16T20:22:42.001Z,86.12
2024-02-16T20:25:10.117Z,85.74
2024-02-16T20:27:38.225Z,85.98
2024-02-16T20:30:07.450Z,86.28
2024-02-16T20:32:37.055Z,86.76
2024-02-16T20:35:06.287Z,88.10
2024-02-16T20:37:34.254Z,88.69
2024-02-16T20:40:02.211Z,89.12
2024-02-16T20:42:31.376Z,91.02
2024-02-16T20:45:00.003Z,89.88
2024-02-16T20:47:28.419Z,90.90
2024-02-16T20:49:58.146Z,92.49
2024-02-16T20:52:26.255Z,93.02
2024-02-16T20:54:54.740Z,93.27
2024-02-16T20:57:22.940Z,93.74
2024-02-16T20:59:50.935Z,93.07
2024-02-16T21:02:20.575Z,93.39
2024-02-16T21:04:48.994Z,93.09
2024-02-16T21:07:18.876Z,92.99
2024-02-16T21:09:47.857Z,92.55
2024-02-16T21:12:16.022Z,93.78
2024-02-16T21:14:44.635Z,93.23
2024-02-16T21:17:12.680Z,93.75
2024-02-16T21:19:40.617Z,93.86
2024-02-16T21:22:09.352Z,94.51
2024-02-16T21:24:38.872Z,94.36
2024-02-16T21:27:07.097Z,94.33
2024-02-16T21:29:34.964Z,95.27
2024-02-16T21:32:03.022Z,94.95
2024-02-16T21:34:31.318Z,95.67
2024-02-16T21:36:59.387Z,96.49
2024-02-16T21:39:27.658Z,96.14
2024-02-16T21:41:57.134Z,96.20
2024-02-16T21:44:25.277Z,96.00
2024-02-16T21:46:53.328Z,96.45
2024-02-16T21:49:22.820Z,96.32
2024-02-16T21:51:51.154Z,96.45
2024-02-16T21:54:19.583Z,96.49
2024-02-16T21:56:47.501Z,96.67
2024-02-16T21:59:16.682Z,96.86
2024-02-16T22:01:44.779Z,96.83
2024-02-16T22:04:12.926Z,97.44
2024-02-16T22:06:41.146Z,98.03
2024-02-16T22:09:10.379Z,97.70
2024-02-16T22:11:39.061Z,98.06
2024-02-16T22:14:07.068Z,98.61
2024-02-16T22:16:37.999Z,98.18
2024-02-16T22:19:06.236Z,97.79
2024-02-16T22:21:39.677Z,98.55
2024-02-16T22:24:11.391Z,98.76
2024-02-16T22:26:41.079Z,99.12
2024-02-16T22:29:09.362Z,99.10
2024-02-16T22:31:42.273Z,99.05
2024-02-16T22:34:12.578Z,99.49
2024-02-16T22:36:41.398Z,99.76
2024-02-16T22:39:10.174Z,99.06
2024-02-16T22:41:38.655Z,99.23
2024-02-16T22:44:06.844Z,99.30
2024-02-16T22:46:34.997Z,99.94
2024-02-16T22:49:05.072Z,99.77
2024-02-16T22:51:39.648Z,99.09
2024-02-16T22:54:11.754Z,98.90
2024-02-16T22:56:40.176Z,99.22
2024-02-16T22:59:08.247Z,99.90
2024-02-16T23:01:36.195Z,100.00
2024-02-16T23:04:08.078Z,100.00
2024-02-16T23:06:36.263Z,100.00
2024-02-16T23:09:09.395Z,100.00
2024-02-16T23:11:37.972Z,100.00
2024-02-16T23:14:07.211Z,100.00
2024-02-16T23:16:35.049Z,100.00
2024-02-16T23:19:03.194Z,100.00
2024-02-16T23:21:32.629Z,100.00
2024-02-16T23:24:00.645Z,100.00
2024-02-16T23:26:28.507Z,100.00
2024-02-16T23:28:56.364Z,100.00
2024-02-16T23:31:24.241Z,100.00
2024-02-16T23:33:52.120Z,100.00
2024-02-16T23:36:20.186Z,100.00
2024-02-16T23:38:49.543Z,99.91
2024-02-16T23:41:18.385Z,100.00
2024-02-16T23:43:46.281Z,100.00
2024-02-16T23:46:14.509Z,100.00
2024-02-16T23:48:42.669Z,100.00
2024-02-16T23:51:10.693Z,100.00
2024-02-16T23:53:38.825Z,100.00
2024-02-16T23:56:08.435Z,100.00
2024-02-16T23:58:36.235Z,100.00
